Time;durP1;ratioP1;P1;durP2;ratioP2;P2;SDS_P1;SDS_P2;PMS_P1;PMS_P2;Temp;Humidity;BMP_temperature;BMP_pressure;BME280_temperature;BME280_humidity;BME280_pressure;Samples;Min_cycle;Max_cycle;Signal;HPM_P1;HPM_P2
2023/05/11 00:01:06;;;;;;;;;;;11.50;99.90;;;;;;4896972;29;19978;-69
2023/05/11 00:03:32;;;;;;;;;;;11.60;99.90;;;;;;4895768;29;20370;-68
2023/05/11 00:05:58;;;;;;;;;;;11.50;99.90;;;;;;4911536;29;19927;-69
2023/05/11 00:08:24;;;;;;;;;;;11.50;99.90;;;;;;4914967;29;20297;-68
2023/05/11 00:10:49;;;;;;;;;;;11.50;99.90;;;;;;4900755;29;19983;-69
2023/05/11 00:13:15;;;;;;;;;;;11.50;99.90;;;;;;4900502;29;19934;-70
2023/05/11 00:15:41;;;;;;;;;;;11.40;99.90;;;;;;4900228;29;20341;-69
2023/05/11 00:18:06;;;;;;;;;;;11.40;99.90;;;;;;4900538;29;20355;-68
2023/05/11 00:20:32;;;;;;;;;;;11.30;99.90;;;;;;4900181;29;19975;-68
2023/05/11 00:22:58;;;;;;;;;;;11.40;99.90;;;;;;4900525;29;19943;-68
2023/05/11 00:25:23;;;;;;;;;;;11.40;99.90;;;;;;4899877;29;20285;-69
2023/05/11 00:27:49;;;;;;;;;;;11.40;99.90;;;;;;4900295;29;19934;-68
2023/05/11 00:30:15;;;;;;;;;;;11.30;99.90;;;;;;4900302;29;20452;-69
2023/05/11 00:32:41;;;;;;;;;;;11.30;99.90;;;;;;4899895;29;20377;-69
2023/05/11 00:35:07;;;;;;;;;;;11.30;99.90;;;;;;4883426;29;19983;-68
2023/05/11 00:37:32;;;;;;;;;;;11.30;99.90;;;;;;4899650;29;19932;-69
2023/05/11 00:39:58;;;;;;;;;;;11.40;99.90;;;;;;4899422;29;19927;-67
2023/05/11 00:42:23;;;;;;;;;;;11.30;99.90;;;;;;4899969;29;19927;-68
2023/05/11 00:44:49;;;;;;;;;;;11.30;99.90;;;;;;4899875;29;20377;-69
2023/05/11 00:47:15;;;;;;;;;;;11.20;99.90;;;;;;4914531;29;20361;-69
2023/05/11 00:49:41;;;;;;;;;;;11.20;99.90;;;;;;4899121;29;19974;-69
2023/05/11 00:52:07;;;;;;;;;;;11.30;99.90;;;;;;4899914;29;19971;-69
2023/05/11 00:54:33;;;;;;;;;;;11.30;99.90;;;;;;4898512;29;19928;-69
2023/05/11 00:56:59;;;;;;;;;;;11.30;99.90;;;;;;4899786;29;20293;-69
2023/05/11 00:59:24;;;;;;;;;;;11.30;99.90;;;;;;4898584;29;19939;-69
2023/05/11 01:01:50;;;;;;;;;;;11.30;99.90;;;;;;4913891;29;19943;-68
2023/05/11 01:04:16;;;;;;;;;;;11.40;99.90;;;;;;4898308;29;19931;-68
2023/05/11 01:06:45;;;;;;;;;;;11.40;99.90;;;;;;4913516;29;19971;-69
2023/05/11 01:09:17;;;;;;;;;;;11.20;99.90;;;;;;4898678;29;20416;-69
2023/05/11 01:11:45;;;;;;;;;;;11.40;99.90;;;;;;4899282;29;19975;-69
2023/05/11 01:14:17;;;;;;;;;;;11.40;99.90;;;;;;4913827;29;20009;-68
2023/05/11 01:16:45;;;;;;;;;;;11.40;99.90;;;;;;4897868;29;19927;-68
2023/05/11 01:19:17;;;;;;;;;;;11.40;99.90;;;;;;4898612;29;20398;-69
2023/05/11 01:21:43;;;;;;;;;;;11.40;99.90;;;;;;4913513;29;19927;-69
2023/05/11 01:24:21;;;;;;;;;;;11.40;99.90;;;;;;4898326;29;19928;-69
2023/05/11 01:26:46;;;;;;;;;;;11.40;99.90;;;;;;4897911;29;19935;-69
2023/05/11 01:29:26;;;;;;;;;;;11.30;99.90;;;;;;4913949;29;19927;-69
2023/05/11 01:31:54;;;;;;;;;;;11.30;99.90;;;;;;4898950;29;20150;-70
2023/05/11 01:34:24;;;;;;;;;;;11.30;99.90;;;;;;4897981;29;20386;-68
2023/05/11 01:36:52;;;;;;;;;;;11.30;99.90;;;;;;4897568;29;19931;-69
2023/05/11 01:39:20;;;;;;;;;;;11.30;99.90;;;;;;4913532;29;19928;-69
2023/05/11 01:41:50;;;;;;;;;;;11.20;99.90;;;;;;4881944;29;20022;-68
2023/05/11 01:44:17;;;;;;;;;;;11.30;99.90;;;;;;4899133;29;19927;-68
2023/05/11 01:46:43;;;;;;;;;;;11.20;99.90;;;;;;4897651;29;19934;-68
2023/05/11 01:49:09;;;;;;;;;;;11.20;99.90;;;;;;4897739;29;19931;-68
2023/05/11 01:51:36;;;;;;;;;;;11.20;99.90;;;;;;4898403;29;19935;-68
2023/05/11 01:54:02;;;;;;;;;;;11.20;99.90;;;;;;4882389;29;19999;-69
2023/05/11 01:56:29;;;;;;;;;;;11.20;99.90;;;;;;4897551;29;20330;-69
2023/05/11 01:58:55;;;;;;;;;;;11.20;99.90;;;;;;4898052;29;20551;-68
2023/05/11 02:01:21;;;;;;;;;;;11.20;99.90;;;;;;4882122;29;20320;-69
2023/05/11 02:03:48;;;;;;;;;;;11.10;99.90;;;;;;4896938;29;20014;-70
2023/05/11 02:06:14;;;;;;;;;;;11.10;99.90;;;;;;4898648;29;20304;-69
2023/05/11 02:08:40;;;;;;;;;;;11.10;99.90;;;;;;4897976;29;19928;-69
2023/05/11 02:11:07;;;;;;;;;;;11.10;99.90;;;;;;4897585;29;20038;-68
2023/05/11 02:13:35;;;;;;;;;;;11.10;99.90;;;;;;4898485;29;19979;-69
2023/05/11 02:16:01;;;;;;;;;;;11.10;99.90;;;;;;4898191;29;19934;-68
2023/05/11 02:18:27;;;;;;;;;;;11.10;99.90;;;;;;4897002;29;20010;-70
2023/05/11 02:20:55;;;;;;;;;;;11.00;99.90;;;;;;4897621;29;20290;-70
2023/05/11 02:23:22;;;;;;;;;;;10.90;99.90;;;;;;4912904;29;19927;-68
2023/05/11 02:25:48;;;;;;;;;;;11.00;99.90;;;;;;4897962;29;19935;-69
2023/05/11 02:28:14;;;;;;;;;;;10.90;99.90;;;;;;4912980;29;19967;-69
2023/05/11 02:30:43;;;;;;;;;;;11.00;99.90;;;;;;4895905;29;19928;-69
2023/05/11 02:33:09;;;;;;;;;;;10.90;99.90;;;;;;4898084;29;20338;-69
2023/05/11 02:35:41;;;;;;;;;;;11.00;99.90;;;;;;4898063;29;19927;-70
2023/05/11 02:38:07;;;;;;;;;;;11.10;99.90;;;;;;4898102;29;19927;-69
2023/05/11 02:40:37;;;;;;;;;;;11.10;99.90;;;;;;4897073;29;19927;-69
2023/05/11 02:43:07;;;;;;;;;;;11.00;99.90;;;;;;4896536;29;19978;-70
2023/05/11 02:45:33;;;;;;;;;;;11.00;99.90;;;;;;4897849;29;20279;-68
2023/05/11 02:47:59;;;;;;;;;;;10.90;99.90;;;;;;4880904;29;19931;-69
2023/05/11 02:50:27;;;;;;;;;;;10.90;99.90;;;;;;4896548;29;20358;-69
2023/05/11 02:52:54;;;;;;;;;;;10.90;99.90;;;;;;4897398;29;20010;-70
2023/05/11 02:55:19;;;;;;;;;;;10.90;99.90;;;;;;4897707;29;19927;-70
2023/05/11 02:57:45;;;;;;;;;;;10.90;99.90;;;;;;4897279;29;20018;-69
2023/05/11 03:00:11;;;;;;;;;;;10.90;99.90;;;;;;4897897;29;20018;-68
2023/05/11 03:02:37;;;;;;;;;;;11.00;99.90;;;;;;4897593;29;20102;-69
2023/05/11 03:05:03;;;;;;;;;;;11.00;99.90;;;;;;4895702;29;20575;-69
2023/05/11 03:07:30;;;;;;;;;;;10.90;99.90;;;;;;4897477;29;19927;-69
2023/05/11 03:09:55;;;;;;;;;;;10.90;99.90;;;;;;4911901;29;19932;-69
2023/05/11 03:12:21;;;;;;;;;;;10.80;99.90;;;;;;4897242;29;20417;-69
2023/05/11 03:14:48;;;;;;;;;;;10.80;99.90;;;;;;4897108;29;19975;-68
2023/05/11 03:17:14;;;;;;;;;;;10.80;99.90;;;;;;4880935;29;20294;-69
2023/05/11 03:19:41;;;;;;;;;;;10.80;99.90;;;;;;4897426;29;20345;-68
2023/05/11 03:22:07;;;;;;;;;;;10.80;99.90;;;;;;4896813;29;19973;-69
2023/05/11 03:24:33;;;;;;;;;;;10.80;99.90;;;;;;4896985;29;19928;-69
2023/05/11 03:26:59;;;;;;;;;;;10.80;99.90;;;;;;4864950;29;19927;-70
2023/05/11 03:29:26;;;;;;;;;;;10.90;99.90;;;;;;4912106;29;19931;-70
2023/05/11 03:31:52;;;;;;;;;;;10.80;99.90;;;;;;4895826;29;20030;-70
2023/05/11 03:34:18;;;;;;;;;;;10.80;99.90;;;;;;4897314;29;20021;-70
2023/05/11 03:36:44;;;;;;;;;;;10.80;99.90;;;;;;4912020;29;19982;-69
2023/05/11 03:39:11;;;;;;;;;;;10.80;99.90;;;;;;4896736;29;20034;-69
2023/05/11 03:41:38;;;;;;;;;;;10.90;99.90;;;;;;4898205;29;19939;-69
2023/05/11 03:44:04;;;;;;;;;;;10.80;99.90;;;;;;4900672;29;19953;-69
2023/05/11 03:46:31;;;;;;;;;;;10.80;99.90;;;;;;4901042;29;19934;-69
2023/05/11 03:48:57;;;;;;;;;;;10.90;99.90;;;;;;4900610;29;19928;-69
2023/05/11 03:51:23;;;;;;;;;;;10.90;99.90;;;;;;4899965;29;19927;-69
2023/05/11 03:53:49;;;;;;;;;;;10.90;99.90;;;;;;4899814;29;19950;-69
2023/05/11 03:56:14;;;;;;;;;;;10.90;99.90;;;;;;4915088;29;19967;-69
2023/05/11 03:58:40;;;;;;;;;;;10.80;99.90;;;;;;4899501;29;20393;-69
2023/05/11 04:01:07;;;;;;;;;;;10.90;99.90;;;;;;4900421;29;19932;-69
2023/05/11 04:03:33;;;;;;;;;;;10.90;99.90;;;;;;4883643;29;19927;-67
2023/05/11 04:05:59;;;;;;;;;;;11.00;99.90;;;;;;4900221;29;19938;-69
2023/05/11 04:08:24;;;;;;;;;;;11.00;99.90;;;;;;4900585;29;19989;-69
2023/05/11 04:10:50;;;;;;;;;;;10.90;99.90;;;;;;4900193;29;20350;-69
2023/05/11 04:13:16;;;;;;;;;;;10.90;99.90;;;;;;4900317;29;20030;-69
2023/05/11 04:15:41;;;;;;;;;;;10.90;99.90;;;;;;4899871;29;19934;-69
2023/05/11 04:18:07;;;;;;;;;;;10.90;99.90;;;;;;4868089;29;20028;-69
2023/05/11 04:20:32;;;;;;;;;;;11.00;99.90;;;;;;4883531;29;19931;-69
2023/05/11 04:22:58;;;;;;;;;;;10.90;99.90;;;;;;4898637;29;19931;-69
2023/05/11 04:25:23;;;;;;;;;;;11.00;99.90;;;;;;4914777;29;19927;-68
2023/05/11 04:27:49;;;;;;;;;;;10.90;99.90;;;;;;4915203;29;20334;-68
2023/05/11 04:30:15;;;;;;;;;;;10.90;99.90;;;;;;4899913;29;19927;-69
2023/05/11 04:32:40;;;;;;;;;;;10.90;99.90;;;;;;4899112;29;19949;-68
2023/05/11 04:35:06;;;;;;;;;;;11.00;99.90;;;;;;4883270;29;19963;-69
2023/05/11 04:37:31;;;;;;;;;;;11.00;99.90;;;;;;4900033;29;19979;-69
2023/05/11 04:39:57;;;;;;;;;;;11.00;99.90;;;;;;4899742;29;20259;-69
2023/05/11 04:42:23;;;;;;;;;;;10.90;99.90;;;;;;4899849;29;19927;-68
2023/05/11 04:44:51;;;;;;;;;;;11.00;99.90;;;;;;4898854;29;20004;-69
2023/05/11 04:47:17;;;;;;;;;;;10.90;99.90;;;;;;4898605;29;19923;-70
2023/05/11 04:49:43;;;;;;;;;;;10.90;99.90;;;;;;4867615;29;19966;-70
2023/05/11 04:52:08;;;;;;;;;;;10.90;99.90;;;;;;4899474;29;19955;-70
2023/05/11 04:54:35;;;;;;;;;;;10.90;99.90;;;;;;4898496;29;19931;-70
2023/05/11 04:57:01;;;;;;;;;;;10.80;99.90;;;;;;4883129;29;19927;-70
2023/05/11 04:59:26;;;;;;;;;;;10.90;99.90;;;;;;4900039;29;20033;-71
2023/05/11 05:01:52;;;;;;;;;;;10.80;99.90;;;;;;4914444;29;19928;-70
2023/05/11 05:04:17;;;;;;;;;;;10.90;99.90;;;;;;4898926;29;19928;-70
2023/05/11 05:06:43;;;;;;;;;;;10.90;99.90;;;;;;4883148;29;19934;-70
2023/05/11 05:09:09;;;;;;;;;;;10.90;99.90;;;;;;4899301;29;20271;-69
2023/05/11 05:11:35;;;;;;;;;;;10.90;99.90;;;;;;4882948;29;19927;-69
2023/05/11 05:14:01;;;;;;;;;;;10.90;99.90;;;;;;4882466;29;20366;-69
2023/05/11 05:16:26;;;;;;;;;;;10.90;99.90;;;;;;4899298;29;19927;-70
2023/05/11 05:18:52;;;;;;;;;;;10.90;99.90;;;;;;4898192;29;19931;-69
2023/05/11 05:21:17;;;;;;;;;;;10.90;99.90;;;;;;4897626;29;19935;-70
2023/05/11 05:23:43;;;;;;;;;;;10.90;99.90;;;;;;4899195;29;20275;-68
2023/05/11 05:26:08;;;;;;;;;;;10.90;99.90;;;;;;4897563;29;19927;-69
2023/05/11 05:28:34;;;;;;;;;;;10.90;99.90;;;;;;4914033;29;20019;-69
2023/05/11 05:31:00;;;;;;;;;;;10.90;99.90;;;;;;4867408;29;20018;-68
2023/05/11 05:33:26;;;;;;;;;;;10.90;99.90;;;;;;4913502;29;19927;-69
2023/05/11 05:35:51;;;;;;;;;;;10.80;99.90;;;;;;4882755;29;19928;-69
2023/05/11 05:38:17;;;;;;;;;;;10.80;99.90;;;;;;4913573;29;20019;-69
2023/05/11 05:40:43;;;;;;;;;;;10.90;99.90;;;;;;4899075;29;19956;-68
2023/05/11 05:43:08;;;;;;;;;;;10.90;99.90;;;;;;4898772;29;20370;-68
2023/05/11 05:45:34;;;;;;;;;;;10.80;99.90;;;;;;4897512;29;19931;-69
2023/05/11 05:48:00;;;;;;;;;;;10.90;99.90;;;;;;4898084;29;20506;-69
2023/05/11 05:50:26;;;;;;;;;;;11.00;99.90;;;;;;4898694;29;19923;-70
2023/05/11 05:52:51;;;;;;;;;;;10.90;99.90;;;;;;4913808;29;19927;-72
2023/05/11 05:55:17;;;;;;;;;;;11.00;99.90;;;;;;4898461;29;19935;-71
2023/05/11 05:57:42;;;;;;;;;;;11.00;99.90;;;;;;4898790;29;20422;-70
2023/05/11 06:00:08;;;;;;;;;;;11.00;99.90;;;;;;4898704;29;20061;-68
2023/05/11 06:02:34;;;;;;;;;;;10.50;99.90;;;;;;4898779;29;20022;-70
2023/05/11 06:05:00;;;;;;;;;;;11.20;99.90;;;;;;4898682;29;19928;-71
2023/05/11 06:07:25;;;;;;;;;;;11.10;99.90;;;;;;4897316;29;20325;-71
2023/05/11 06:09:51;;;;;;;;;;;11.00;99.90;;;;;;4897504;29;19928;-69
2023/05/11 06:12:16;;;;;;;;;;;11.00;99.90;;;;;;4898151;29;19928;-72
2023/05/11 06:14:42;;;;;;;;;;;11.10;99.90;;;;;;4898603;29;19928;-71
2023/05/11 06:17:08;;;;;;;;;;;11.10;99.90;;;;;;4913249;29;19927;-71
2023/05/11 06:19:33;;;;;;;;;;;11.10;99.90;;;;;;4898137;29;19927;-71
2023/05/11 06:21:59;;;;;;;;;;;11.20;99.90;;;;;;4897933;29;19927;-71
2023/05/11 06:24:24;;;;;;;;;;;11.30;99.90;;;;;;4897697;29;19939;-69
2023/05/11 06:26:50;;;;;;;;;;;11.30;99.90;;;;;;4896591;29;20010;-71
2023/05/11 06:29:16;;;;;;;;;;;11.30;99.90;;;;;;4881123;29;19934;-71
2023/05/11 06:31:42;;;;;;;;;;;11.40;99.90;;;;;;4898085;29;19934;-72
2023/05/11 06:34:08;;;;;;;;;;;11.40;99.90;;;;;;4898315;29;20018;-71
2023/05/11 06:36:33;;;;;;;;;;;11.60;99.90;;;;;;4897692;29;19944;-70
2023/05/11 06:38:59;;;;;;;;;;;11.60;99.90;;;;;;4898020;29;19927;-71
2023/05/11 06:41:25;;;;;;;;;;;11.60;99.90;;;;;;4897758;29;20386;-70
2023/05/11 06:43:50;;;;;;;;;;;11.60;99.90;;;;;;4898003;29;20038;-70
2023/05/11 06:46:16;;;;;;;;;;;11.70;99.90;;;;;;4897534;29;19927;-72
2023/05/11 06:48:42;;;;;;;;;;;11.70;99.90;;;;;;4912787;29;19928;-72
2023/05/11 06:51:11;;;;;;;;;;;11.70;99.90;;;;;;4897776;29;19928;-72
2023/05/11 06:53:37;;;;;;;;;;;11.80;99.90;;;;;;4896345;29;20326;-71
2023/05/11 06:56:02;;;;;;;;;;;11.80;99.90;;;;;;4912575;29;20416;-71
2023/05/11 06:58:28;;;;;;;;;;;11.70;99.90;;;;;;4896429;29;19927;-72
2023/05/11 07:00:54;;;;;;;;;;;11.80;99.90;;;;;;4896941;29;19932;-74
2023/05/11 07:03:19;;;;;;;;;;;11.70;99.90;;;;;;4913977;29;19928;-72
2023/05/11 07:05:45;;;;;;;;;;;11.70;99.90;;;;;;4901088;29;19933;-72
2023/05/11 07:08:10;;;;;;;;;;;11.80;99.90;;;;;;4898419;29;19928;-72
2023/05/11 07:10:36;;;;;;;;;;;11.80;99.90;;;;;;4897812;29;19923;-72
2023/05/11 07:13:01;;;;;;;;;;;11.80;99.90;;;;;;4912539;29;19931;-72
2023/05/11 07:15:27;;;;;;;;;;;11.90;99.90;;;;;;4896280;29;19927;-75
2023/05/11 07:17:53;;;;;;;;;;;11.90;99.90;;;;;;4895943;29;19927;-72
2023/05/11 07:20:18;;;;;;;;;;;11.90;99.90;;;;;;4896874;29;19934;-69
2023/05/11 07:22:46;;;;;;;;;;;12.00;99.90;;;;;;4897546;29;19931;-71
2023/05/11 07:25:11;;;;;;;;;;;12.00;99.90;;;;;;4895990;29;20393;-71
2023/05/11 07:27:37;;;;;;;;;;;12.00;99.90;;;;;;4897091;29;19970;-72
2023/05/11 07:30:03;;;;;;;;;;;12.00;99.90;;;;;;4911972;29;19927;-70
2023/05/11 07:32:29;;;;;;;;;;;12.10;99.90;;;;;;4896135;29;19927;-72
2023/05/11 07:34:54;;;;;;;;;;;12.10;99.90;;;;;;4911912;29;20028;-71
2023/05/11 07:37:20;;;;;;;;;;;12.10;99.90;;;;;;4896211;29;19999;-70
2023/05/11 07:39:46;;;;;;;;;;;12.10;99.90;;;;;;4895638;29;19927;-72
2023/05/11 07:42:12;;;;;;;;;;;12.20;99.90;;;;;;4897090;29;19927;-72
2023/05/11 07:44:37;;;;;;;;;;;12.10;99.90;;;;;;4880344;29;19934;-74
2023/05/11 07:47:03;;;;;;;;;;;12.20;99.90;;;;;;4895842;29;19978;-73
2023/05/11 07:49:29;;;;;;;;;;;12.20;99.90;;;;;;4896389;29;20299;-75
2023/05/11 07:51:54;;;;;;;;;;;12.20;99.90;;;;;;4897037;29;20005;-73
2023/05/11 07:54:20;;;;;;;;;;;12.20;99.90;;;;;;4911829;29;19983;-72
2023/05/11 07:56:45;;;;;;;;;;;12.20;99.90;;;;;;4896813;29;20266;-72
2023/05/11 07:59:11;;;;;;;;;;;12.20;99.90;;;;;;4896337;29;20006;-73
2023/05/11 08:01:37;;;;;;;;;;;12.20;99.90;;;;;;4896334;29;20337;-72
2023/05/11 08:04:02;;;;;;;;;;;12.20;99.90;;;;;;4896170;29;19927;-72
2023/05/11 08:06:28;;;;;;;;;;;12.20;99.90;;;;;;4895138;29;19934;-73
2023/05/11 08:08:53;;;;;;;;;;;12.20;99.90;;;;;;4896386;29;19931;-71
2023/05/11 08:11:19;;;;;;;;;;;12.30;99.90;;;;;;4879608;29;19928;-74
2023/05/11 08:13:45;;;;;;;;;;;12.30;99.90;;;;;;4864287;29;19923;-72
2023/05/11 08:16:11;;;;;;;;;;;12.20;99.90;;;;;;4911501;29;19927;-72
2023/05/11 08:18:36;;;;;;;;;;;12.20;99.90;;;;;;4911057;29;19928;-71
2023/05/11 08:21:02;;;;;;;;;;;12.20;99.90;;;;;;4896568;29;19931;-72
2023/05/11 08:23:28;;;;;;;;;;;12.20;99.90;;;;;;4895733;29;19983;-72
2023/05/11 08:25:54;;;;;;;;;;;12.20;99.90;;;;;;4879768;29;20298;-72
2023/05/11 08:28:20;;;;;;;;;;;12.20;99.90;;;;;;4906844;29;19927;-71
2023/05/11 08:30:46;;;;;;;;;;;12.30;99.90;;;;;;4911909;29;19923;-73
2023/05/11 08:33:12;;;;;;;;;;;12.30;99.90;;;;;;4915692;29;20072;-72
2023/05/11 08:35:38;;;;;;;;;;;12.30;99.90;;;;;;4898440;29;19927;-72
2023/05/11 08:38:04;;;;;;;;;;;12.30;99.90;;;;;;4900467;29;20043;-74
2023/05/11 08:40:29;;;;;;;;;;;12.40;99.90;;;;;;4883416;29;20386;-72
2023/05/11 08:42:56;;;;;;;;;;;12.40;99.90;;;;;;4899602;29;20289;-72
2023/05/11 08:45:21;;;;;;;;;;;12.50;99.90;;;;;;4898945;29;19938;-73
2023/05/11 08:47:47;;;;;;;;;;;12.50;99.90;;;;;;4899008;29;19927;-71
2023/05/11 08:50:13;;;;;;;;;;;12.50;99.90;;;;;;4900347;29;19928;-72
2023/05/11 08:52:39;;;;;;;;;;;12.60;99.90;;;;;;4898758;29;19962;-72
2023/05/11 08:55:06;;;;;;;;;;;12.60;99.90;;;;;;4899186;29;20003;-72
2023/05/11 08:57:33;;;;;;;;;;;12.60;99.90;;;;;;4899678;29;19965;-72
2023/05/11 09:00:00;;;;;;;;;;;12.60;99.90;;;;;;4900164;29;19979;-72
2023/05/11 09:02:26;;;;;;;;;;;12.60;99.90;;;;;;4899233;29;20330;-74
2023/05/11 09:04:53;;;;;;;;;;;12.60;99.90;;;;;;4899605;29;20014;-72
2023/05/11 09:07:19;;;;;;;;;;;12.70;99.90;;;;;;4914717;29;19998;-72
2023/05/11 09:09:45;;;;;;;;;;;12.70;99.90;;;;;;4899554;29;19949;-73
2023/05/11 09:12:10;;;;;;;;;;;12.70;99.90;;;;;;4899765;29;20366;-72
2023/05/11 09:14:36;;;;;;;;;;;12.70;99.90;;;;;;4898456;29;19934;-73
2023/05/11 09:17:03;;;;;;;;;;;12.80;99.90;;;;;;4899569;29;19927;-71
2023/05/11 09:19:28;;;;;;;;;;;12.80;99.90;;;;;;4898554;29;19927;-72
2023/05/11 09:21:54;;;;;;;;;;;12.90;99.90;;;;;;4899383;29;20398;-72
2023/05/11 09:24:20;;;;;;;;;;;13.00;99.90;;;;;;4882889;29;19928;-72
2023/05/11 09:26:46;;;;;;;;;;;13.00;99.90;;;;;;4882296;29;19928;-71
2023/05/11 09:29:11;;;;;;;;;;;13.10;99.90;;;;;;4899261;29;20358;-71
2023/05/11 09:31:39;;;;;;;;;;;13.20;99.90;;;;;;4898023;29;19935;-70
2023/05/11 09:34:07;;;;;;;;;;;13.30;99.90;;;;;;4899105;29;19931;-71
2023/05/11 09:36:33;;;;;;;;;;;13.40;99.90;;;;;;4913567;29;20362;-71
2023/05/11 09:39:01;;;;;;;;;;;13.50;99.90;;;;;;4912703;29;19943;-70
2023/05/11 09:41:26;;;;;;;;;;;13.50;99.90;;;;;;4897830;29;20314;-72
2023/05/11 09:43:52;;;;;;;;;;;13.60;99.90;;;;;;4898567;29;19927;-70
2023/05/11 09:46:20;;;;;;;;;;;13.70;99.90;;;;;;4898736;29;20038;-72
2023/05/11 09:48:56;;;;;;;;;;;13.80;99.90;;;;;;4898676;29;19935;-70
2023/05/11 09:51:27;;;;;;;;;;;13.90;99.90;;;;;;4884041;29;20305;-73
2023/05/11 09:53:53;;;;;;;;;;;14.00;99.90;;;;;;4903289;29;19971;-71
2023/05/11 09:56:18;;;;;;;;;;;14.10;99.90;;;;;;4916552;29;19927;-71
2023/05/11 09:58:51;;;;;;;;;;;14.30;99.90;;;;;;4898097;29;20022;-73
2023/05/11 10:01:17;;;;;;;;;;;14.40;99.90;;;;;;4898216;29;19927;-74
2023/05/11 10:03:47;;;;;;;;;;;14.50;99.90;;;;;;4898657;29;20388;-72
2023/05/11 10:06:13;;;;;;;;;;;14.60;99.90;;;;;;4912531;29;20366;-73
2023/05/11 10:08:39;;;;;;;;;;;14.60;99.90;;;;;;4912382;29;19927;-72
2023/05/11 10:11:05;;;;;;;;;;;14.60;99.90;;;;;;4913148;29;19931;-75
2023/05/11 10:13:31;;;;;;;;;;;14.60;99.90;;;;;;4897695;29;19951;-73
2023/05/11 10:15:58;;;;;;;;;;;14.60;99.90;;;;;;4881883;29;19927;-73
2023/05/11 10:18:24;;;;;;;;;;;14.60;99.90;;;;;;4897377;29;19981;-74
2023/05/11 10:20:50;;;;;;;;;;;14.60;99.90;;;;;;4897886;29;19942;-74
2023/05/11 10:23:16;;;;;;;;;;;14.70;99.90;;;;;;4882145;29;20470;-73
2023/05/11 10:25:42;;;;;;;;;;;14.80;99.90;;;;;;4898412;29;19978;-70
2023/05/11 10:28:08;;;;;;;;;;;14.90;99.90;;;;;;4898078;29;19928;-75
2023/05/11 10:30:34;;;;;;;;;;;14.90;99.90;;;;;;4897457;29;19934;-75
2023/05/11 10:33:00;;;;;;;;;;;14.90;99.90;;;;;;4865522;29;20018;-72
2023/05/11 10:35:25;;;;;;;;;;;15.00;99.90;;;;;;4897383;29;20027;-74
2023/05/11 10:37:51;;;;;;;;;;;15.10;99.90;;;;;;4911215;29;19923;-74
2023/05/11 10:40:17;;;;;;;;;;;15.30;99.90;;;;;;4897860;29;19935;-72
2023/05/11 10:42:42;;;;;;;;;;;15.50;99.90;;;;;;4881326;29;19967;-72
2023/05/11 10:45:08;;;;;;;;;;;15.60;99.90;;;;;;4897865;29;19928;-73
2023/05/11 10:47:47;;;;;;;;;;;15.60;99.90;;;;;;4913056;29;19931;-73
2023/05/11 10:50:23;;;;;;;;;;;15.70;99.90;;;;;;4897300;29;19928;-72
2023/05/11 10:53:06;;;;;;;;;;;15.80;99.90;;;;;;4896085;29;19928;-73
2023/05/11 10:55:34;;;;;;;;;;;15.90;99.90;;;;;;4896980;29;20026;-75
2023/05/11 10:58:00;;;;;;;;;;;16.00;99.90;;;;;;4912413;29;20297;-73
2023/05/11 11:00:46;;;;;;;;;;;16.00;99.90;;;;;;4912788;29;19935;-72
2023/05/11 11:03:13;;;;;;;;;;;16.00;99.90;;;;;;4911498;29;19928;-73
2023/05/11 11:05:39;;;;;;;;;;;16.10;99.90;;;;;;4912785;29;19983;-73
2023/05/11 11:08:07;;;;;;;;;;;16.20;99.90;;;;;;4895259;29;19982;-71
2023/05/11 11:10:42;;;;;;;;;;;16.20;99.90;;;;;;4895917;29;19927;-74
2023/05/11 11:13:09;;;;;;;;;;;16.20;99.90;;;;;;4896216;29;19987;-72
2023/05/11 11:15:53;;;;;;;;;;;16.20;99.90;;;;;;4884734;29;19932;-73
2023/05/11 11:18:22;;;;;;;;;;;16.20;99.90;;;;;;4923008;29;19935;-70
2023/05/11 11:20:49;;;;;;;;;;;16.20;99.90;;;;;;4884050;29;19927;-75
2023/05/11 11:23:33;;;;;;;;;;;16.20;99.90;;;;;;4896603;29;19938;-74
2023/05/11 11:25:59;;;;;;;;;;;16.30;99.90;;;;;;4912121;29;20034;-72
2023/05/11 11:28:25;;;;;;;;;;;16.30;99.90;;;;;;4896733;29;19927;-74
2023/05/11 11:31:09;;;;;;;;;;;16.30;99.90;;;;;;4897811;29;19950;-73
2023/05/11 11:33:35;;;;;;;;;;;16.30;99.90;;;;;;4896163;29;19932;-73
2023/05/11 11:36:00;;;;;;;;;;;16.40;99.90;;;;;;4895783;29;19934;-75
2023/05/11 11:38:26;;;;;;;;;;;16.40;99.90;;;;;;4896692;29;20421;-73
2023/05/11 11:40:52;;;;;;;;;;;16.50;99.90;;;;;;4879489;29;19927;-76
2023/05/11 11:43:22;;;;;;;;;;;16.60;99.90;;;;;;4896074;29;19927;-76
2023/05/11 11:45:51;;;;;;;;;;;16.50;99.90;;;;;;4897130;29;20408;-75
2023/05/11 11:48:43;;;;;;;;;;;16.60;99.90;;;;;;4894818;29;19943;-72
2023/05/11 11:51:09;;;;;;;;;;;16.60;99.90;;;;;;4893939;29;19928;-80
2023/05/11 11:53:36;;;;;;;;;;;16.80;99.90;;;;;;4880752;29;20263;-78
2023/05/11 11:56:04;;;;;;;;;;;16.90;99.90;;;;;;4911899;29;19928;-76
2023/05/11 11:58:43;;;;;;;;;;;16.90;99.90;;;;;;4892273;29;19990;-76
2023/05/11 12:01:10;;;;;;;;;;;16.90;99.90;;;;;;4897195;29;20370;-77
2023/05/11 12:03:36;;;;;;;;;;;17.00;99.90;;;;;;4897954;29;19996;-77
2023/05/11 12:06:04;;;;;;;;;;;17.00;99.90;;;;;;4901231;29;20050;-75
2023/05/11 12:08:32;;;;;;;;;;;17.10;99.90;;;;;;4900031;29;19927;-80
2023/05/11 12:10:58;;;;;;;;;;;17.00;99.90;;;;;;4899730;29;19928;-77
2023/05/11 12:13:24;;;;;;;;;;;17.00;99.90;;;;;;4900406;29;19939;-81
2023/05/11 12:16:06;;;;;;;;;;;17.00;99.90;;;;;;4884575;29;20007;-81
2023/05/11 12:18:31;;;;;;;;;;;17.10;99.90;;;;;;4900398;29;19928;-74
2023/05/11 12:20:57;;;;;;;;;;;17.10;99.90;;;;;;4900125;29;20425;-75
2023/05/11 12:23:22;;;;;;;;;;;17.10;99.90;;;;;;4915635;29;19934;-77
2023/05/11 12:26:01;;;;;;;;;;;17.10;99.90;;;;;;4914900;29;19934;-75
2023/05/11 12:28:27;;;;;;;;;;;17.00;99.90;;;;;;4915107;29;19928;-77
2023/05/11 12:30:56;;;;;;;;;;;17.00;99.90;;;;;;4899817;29;19995;-74
2023/05/11 12:33:22;;;;;;;;;;;17.00;99.90;;;;;;4915286;29;20310;-75
2023/05/11 12:35:51;;;;;;;;;;;16.90;99.90;;;;;;4884459;29;19928;-78
2023/05/11 12:38:17;;;;;;;;;;;16.90;99.90;;;;;;4900458;29;19991;-77
2023/05/11 12:40:49;;;;;;;;;;;16.90;99.90;;;;;;4915764;29;20018;-76
2023/05/11 12:43:16;;;;;;;;;;;17.00;99.90;;;;;;4912538;29;19928;-76
2023/05/11 12:45:41;;;;;;;;;;;17.10;99.90;;;;;;4898837;29;19927;-74
2023/05/11 12:48:08;;;;;;;;;;;17.10;99.90;;;;;;4883013;29;19928;-77
2023/05/11 12:50:38;;;;;;;;;;;17.20;99.90;;;;;;4899864;29;19927;-77
2023/05/11 12:53:16;;;;;;;;;;;17.20;99.90;;;;;;4898772;29;19924;-78
2023/05/11 12:55:42;;;;;;;;;;;17.20;99.90;;;;;;4898068;29;20409;-76
2023/05/11 12:58:12;;;;;;;;;;;17.20;99.90;;;;;;4897760;29;19931;-78
2023/05/11 13:00:51;;;;;;;;;;;17.20;99.90;;;;;;4898342;29;19927;-76
2023/05/11 13:03:27;;;;;;;;;;;17.20;99.90;;;;;;4897502;29;19928;-77
2023/05/11 13:06:09;;;;;;;;;;;17.10;99.90;;;;;;4898780;29;19928;-76
2023/05/11 13:08:38;;;;;;;;;;;17.00;99.90;;;;;;4898741;29;19938;-76
2023/05/11 13:11:27;;;;;;;;;;;17.00;99.90;;;;;;4898395;29;20018;-78
2023/05/11 13:13:54;;;;;;;;;;;17.00;99.90;;;;;;4897145;29;19924;-76
2023/05/11 13:16:32;;;;;;;;;;;16.90;99.90;;;;;;4897769;29;19998;-77
2023/05/11 13:19:02;;;;;;;;;;;16.90;99.90;;;;;;4898723;29;19927;-70
2023/05/11 13:21:28;;;;;;;;;;;16.90;99.90;;;;;;4898962;29;19937;-76
2023/05/11 13:23:54;;;;;;;;;;;16.80;99.90;;;;;;4899778;29;19931;-72
2023/05/11 13:26:24;;;;;;;;;;;16.90;99.90;;;;;;4898398;29;20271;-72
2023/05/11 13:28:50;;;;;;;;;;;16.90;99.90;;;;;;4898616;29;19934;-72
2023/05/11 13:31:16;;;;;;;;;;;16.90;99.90;;;;;;4913819;29;19927;-74
2023/05/11 13:33:42;;;;;;;;;;;16.80;99.90;;;;;;4898678;29;20083;-73
2023/05/11 13:36:07;;;;;;;;;;;16.80;99.90;;;;;;4899322;29;20014;-71
2023/05/11 13:38:33;;;;;;;;;;;16.70;99.90;;;;;;4882596;29;20017;-70
2023/05/11 13:40:59;;;;;;;;;;;16.80;99.90;;;;;;4899293;29;20425;-71
2023/05/11 13:43:25;;;;;;;;;;;16.80;99.90;;;;;;4899149;29;19932;-71
2023/05/11 13:45:50;;;;;;;;;;;16.80;99.90;;;;;;4899285;29;20285;-72
2023/05/11 13:48:16;;;;;;;;;;;16.90;99.90;;;;;;4898929;29;19935;-72
2023/05/11 13:50:41;;;;;;;;;;;16.70;99.90;;;;;;4913886;29;20442;-72
2023/05/11 13:53:07;;;;;;;;;;;16.70;99.90;;;;;;4898790;29;19982;-71
2023/05/11 13:55:34;;;;;;;;;;;16.60;99.90;;;;;;4899259;29;20331;-72
2023/05/11 13:58:00;;;;;;;;;;;16.60;99.90;;;;;;4898201;29;19927;-73
2023/05/11 14:00:26;;;;;;;;;;;16.50;99.90;;;;;;4897275;29;19934;-71
2023/05/11 14:02:52;;;;;;;;;;;16.40;99.90;;;;;;4898911;29;20330;-72
2023/05/11 14:05:17;;;;;;;;;;;16.40;99.90;;;;;;4897154;29;19935;-71
2023/05/11 14:07:43;;;;;;;;;;;16.40;99.90;;;;;;4899542;29;19928;-71
2023/05/11 14:10:10;;;;;;;;;;;16.40;99.90;;;;;;4898341;29;20022;-73
2023/05/11 14:12:35;;;;;;;;;;;16.30;99.90;;;;;;4897361;29;20453;-70
2023/05/11 14:15:01;;;;;;;;;;;16.40;99.90;;;;;;4898561;29;20011;-71